sensor_id;sensor_type;location;lat;lon;timestamp;P1;durP1;ratioP1;P2;durP2;ratioP2
68718;SDS011;55696;52.138;5.444;2023-07-28T00:02:00;25.13;;;11.10;;
68718;SDS011;55696;52.138;5.444;2023-07-28T00:04:27;19.48;;;11.82;;
68718;SDS011;55696;52.138;5.444;2023-07-28T00:06:54;19.10;;;11.25;;
68718;SDS011;55696;52.138;5.444;2023-07-28T00:09:21;20.95;;;10.80;;
68718;SDS011;55696;52.138;5.444;2023-07-28T00:11:49;19.93;;;11.97;;
68718;SDS011;55696;52.138;5.444;2023-07-28T00:14:16;21.48;;;11.77;;
68718;SDS011;55696;52.138;5.444;2023-07-28T00:16:43;24.77;;;12.25;;
68718;SDS011;55696;52.138;5.444;2023-07-28T00:19:10;17.98;;;11.30;;
68718;SDS011;55696;52.138;5.444;2023-07-28T00:21:37;19.73;;;12.20;;
68718;SDS011;55696;52.138;5.444;2023-07-28T00:24:04;21.40;;;11.87;;
68718;SDS011;55696;52.138;5.444;2023-07-28T00:26:31;23.88;;;12.00;;
68718;SDS011;55696;52.138;5.444;2023-07-28T00:28:58;19.60;;;10.77;;
68718;SDS011;55696;52.138;5.444;2023-07-28T00:31:25;19.63;;;10.52;;
68718;SDS011;55696;52.138;5.444;2023-07-28T00:33:52;23.20;;;10.10;;
68718;SDS011;55696;52.138;5.444;2023-07-28T00:36:19;18.67;;;10.53;;
68718;SDS011;55696;52.138;5.444;2023-07-28T00:38:46;21.05;;;10.02;;
68718;SDS011;55696;52.138;5.444;2023-07-28T00:41:15;17.08;;;10.13;;
68718;SDS011;55696;52.138;5.444;2023-07-28T00:43:42;21.80;;;10.30;;
68718;SDS011;55696;52.138;5.444;2023-07-28T00:46:09;22.17;;;10.40;;
68718;SDS011;55696;52.138;5.444;2023-07-28T00:48:37;18.03;;;9.33;;
68718;SDS011;55696;52.138;5.444;2023-07-28T00:51:05;18.30;;;9.13;;
68718;SDS011;55696;52.138;5.444;2023-07-28T00:53:33;16.75;;;9.40;;
68718;SDS011;55696;52.138;5.444;2023-07-28T00:56:00;15.48;;;8.60;;
68718;SDS011;55696;52.138;5.444;2023-07-28T00:58:29;21.65;;;8.75;;
68718;SDS011;55696;52.138;5.444;2023-07-28T01:00:56;14.73;;;8.37;;
68718;SDS011;55696;52.138;5.444;2023-07-28T01:03:23;14.20;;;8.15;;
68718;SDS011;55696;52.138;5.444;2023-07-28T01:08:59;19.08;;;7.65;;
68718;SDS011;55696;52.138;5.444;2023-07-28T01:11:31;22.00;;;7.78;;
68718;SDS011;55696;52.138;5.444;2023-07-28T01:14:00;20.60;;;8.03;;
68718;SDS011;55696;52.138;5.444;2023-07-28T01:16:27;14.02;;;7.25;;
68718;SDS011;55696;52.138;5.444;2023-07-28T01:18:55;19.25;;;7.97;;
68718;SDS011;55696;52.138;5.444;2023-07-28T01:21:22;16.17;;;7.97;;
68718;SDS011;55696;52.138;5.444;2023-07-28T01:26:37;20.47;;;7.97;;
68718;SDS011;55696;52.138;5.444;2023-07-28T01:29:06;21.55;;;8.40;;
68718;SDS011;55696;52.138;5.444;2023-07-28T01:31:34;17.73;;;7.85;;
68718;SDS011;55696;52.138;5.444;2023-07-28T01:34:01;16.08;;;7.80;;
68718;SDS011;55696;52.138;5.444;2023-07-28T01:36:28;20.27;;;8.35;;
68718;SDS011;55696;52.138;5.444;2023-07-28T01:38:54;20.10;;;7.53;;
68718;SDS011;55696;52.138;5.444;2023-07-28T01:41:21;19.27;;;8.13;;
68718;SDS011;55696;52.138;5.444;2023-07-28T01:43:48;17.83;;;7.80;;
68718;SDS011;55696;52.138;5.444;2023-07-28T01:46:15;20.77;;;7.50;;
68718;SDS011;55696;52.138;5.444;2023-07-28T01:48:42;17.77;;;8.10;;
68718;SDS011;55696;52.138;5.444;2023-07-28T01:51:09;21.20;;;8.73;;
68718;SDS011;55696;52.138;5.444;2023-07-28T01:53:36;20.90;;;8.20;;
68718;SDS011;55696;52.138;5.444;2023-07-28T01:56:02;21.55;;;8.35;;
68718;SDS011;55696;52.138;5.444;2023-07-28T01:58:31;21.15;;;8.13;;
68718;SDS011;55696;52.138;5.444;2023-07-28T02:00:58;18.55;;;7.38;;
68718;SDS011;55696;52.138;5.444;2023-07-28T02:03:25;16.80;;;7.40;;
68718;SDS011;55696;52.138;5.444;2023-07-28T02:05:51;18.85;;;8.38;;
68718;SDS011;55696;52.138;5.444;2023-07-28T02:08:19;18.48;;;8.75;;
68718;SDS011;55696;52.138;5.444;2023-07-28T02:10:45;22.38;;;9.10;;
68718;SDS011;55696;52.138;5.444;2023-07-28T02:13:12;21.08;;;8.52;;
68718;SDS011;55696;52.138;5.444;2023-07-28T02:15:39;19.90;;;8.13;;
68718;SDS011;55696;52.138;5.444;2023-07-28T02:18:07;23.13;;;8.45;;
68718;SDS011;55696;52.138;5.444;2023-07-28T02:20:34;24.65;;;9.13;;
68718;SDS011;55696;52.138;5.444;2023-07-28T02:23:02;17.63;;;7.72;;
68718;SDS011;55696;52.138;5.444;2023-07-28T02:25:29;21.33;;;8.43;;
68718;SDS011;55696;52.138;5.444;2023-07-28T02:27:56;21.33;;;9.23;;
68718;SDS011;55696;52.138;5.444;2023-07-28T02:30:24;23.73;;;8.57;;
68718;SDS011;55696;52.138;5.444;2023-07-28T02:32:51;19.50;;;8.95;;
68718;SDS011;55696;52.138;5.444;2023-07-28T02:35:18;26.27;;;10.05;;
68718;SDS011;55696;52.138;5.444;2023-07-28T02:37:47;24.83;;;10.05;;
68718;SDS011;55696;52.138;5.444;2023-07-28T02:40:14;23.97;;;9.50;;
68718;SDS011;55696;52.138;5.444;2023-07-28T02:42:41;24.02;;;10.25;;
68718;SDS011;55696;52.138;5.444;2023-07-28T02:45:08;27.08;;;11.27;;
68718;SDS011;55696;52.138;5.444;2023-07-28T02:47:36;27.50;;;11.57;;
68718;SDS011;55696;52.138;5.444;2023-07-28T02:50:04;27.38;;;10.80;;
68718;SDS011;55696;52.138;5.444;2023-07-28T02:52:31;27.30;;;11.17;;
68718;SDS011;55696;52.138;5.444;2023-07-28T02:54:58;27.38;;;11.02;;
68718;SDS011;55696;52.138;5.444;2023-07-28T02:57:26;30.33;;;11.13;;
68718;SDS011;55696;52.138;5.444;2023-07-28T02:59:53;32.35;;;12.55;;
68718;SDS011;55696;52.138;5.444;2023-07-28T03:02:20;27.52;;;11.93;;
68718;SDS011;55696;52.138;5.444;2023-07-28T03:04:47;27.90;;;11.10;;
68718;SDS011;55696;52.138;5.444;2023-07-28T03:07:14;25.60;;;10.60;;
68718;SDS011;55696;52.138;5.444;2023-07-28T03:09:44;29.50;;;11.43;;
68718;SDS011;55696;52.138;5.444;2023-07-28T03:12:12;26.90;;;12.00;;
68718;SDS011;55696;52.138;5.444;2023-07-28T03:14:39;23.10;;;10.55;;
68718;SDS011;55696;52.138;5.444;2023-07-28T03:17:06;30.67;;;11.60;;
68718;SDS011;55696;52.138;5.444;2023-07-28T03:19:33;31.42;;;12.48;;
68718;SDS011;55696;52.138;5.444;2023-07-28T03:22:00;27.13;;;11.32;;
68718;SDS011;55696;52.138;5.444;2023-07-28T03:24:26;27.15;;;11.68;;
68718;SDS011;55696;52.138;5.444;2023-07-28T03:26:53;29.27;;;12.38;;
68718;SDS011;55696;52.138;5.444;2023-07-28T03:29:20;28.40;;;11.40;;
68718;SDS011;55696;52.138;5.444;2023-07-28T03:31:48;27.90;;;12.43;;
68718;SDS011;55696;52.138;5.444;2023-07-28T03:34:16;32.58;;;12.35;;
68718;SDS011;55696;52.138;5.444;2023-07-28T03:36:43;30.50;;;12.20;;
68718;SDS011;55696;52.138;5.444;2023-07-28T03:39:10;39.50;;;13.85;;
68718;SDS011;55696;52.138;5.444;2023-07-28T03:41:37;36.57;;;13.10;;
68718;SDS011;55696;52.138;5.444;2023-07-28T03:44:04;34.28;;;12.68;;
68718;SDS011;55696;52.138;5.444;2023-07-28T03:46:30;37.50;;;13.43;;
68718;SDS011;55696;52.138;5.444;2023-07-28T03:48:57;33.92;;;12.48;;
68718;SDS011;55696;52.138;5.444;2023-07-28T03:51:26;36.67;;;13.75;;
68718;SDS011;55696;52.138;5.444;2023-07-28T03:53:53;33.53;;;13.90;;
68718;SDS011;55696;52.138;5.444;2023-07-28T03:56:20;33.65;;;13.25;;
68718;SDS011;55696;52.138;5.444;2023-07-28T03:58:46;33.78;;;13.50;;
68718;SDS011;55696;52.138;5.444;2023-07-28T04:01:13;36.70;;;13.18;;
68718;SDS011;55696;52.138;5.444;2023-07-28T04:03:40;39.95;;;15.15;;
68718;SDS011;55696;52.138;5.444;2023-07-28T04:06:11;36.63;;;13.43;;
68718;SDS011;55696;52.138;5.444;2023-07-28T04:08:39;41.13;;;14.63;;
68718;SDS011;55696;52.138;5.444;2023-07-28T04:11:06;44.45;;;15.75;;
68718;SDS011;55696;52.138;5.444;2023-07-28T04:13:33;34.25;;;14.50;;
68718;SDS011;55696;52.138;5.444;2023-07-28T04:16:00;45.13;;;15.20;;
68718;SDS011;55696;52.138;5.444;2023-07-28T04:18:28;41.40;;;15.03;;
68718;SDS011;55696;52.138;5.444;2023-07-28T04:20:55;39.80;;;15.20;;
68718;SDS011;55696;52.138;5.444;2023-07-28T04:23:22;43.22;;;14.60;;
68718;SDS011;55696;52.138;5.444;2023-07-28T04:25:49;51.58;;;15.95;;
68718;SDS011;55696;52.138;5.444;2023-07-28T04:28:16;33.13;;;14.60;;
68718;SDS011;55696;52.138;5.444;2023-07-28T04:30:43;38.47;;;15.43;;
68718;SDS011;55696;52.138;5.444;2023-07-28T04:33:23;37.78;;;14.77;;
68718;SDS011;55696;52.138;5.444;2023-07-28T04:35:50;40.33;;;14.98;;
68718;SDS011;55696;52.138;5.444;2023-07-28T04:38:22;47.38;;;15.32;;
68718;SDS011;55696;52.138;5.444;2023-07-28T04:40:54;42.08;;;15.43;;
68718;SDS011;55696;52.138;5.444;2023-07-28T04:43:29;39.63;;;14.63;;
68718;SDS011;55696;52.138;5.444;2023-07-28T04:45:56;37.53;;;13.98;;
68718;SDS011;55696;52.138;5.444;2023-07-28T04:48:24;47.40;;;15.18;;
68718;SDS011;55696;52.138;5.444;2023-07-28T04:50:51;43.58;;;14.57;;
68718;SDS011;55696;52.138;5.444;2023-07-28T04:53:40;40.05;;;15.05;;
68718;SDS011;55696;52.138;5.444;2023-07-28T04:56:17;43.93;;;15.17;;
68718;SDS011;55696;52.138;5.444;2023-07-28T04:58:44;42.85;;;14.95;;
68718;SDS011;55696;52.138;5.444;2023-07-28T05:01:11;43.97;;;15.63;;
68718;SDS011;55696;52.138;5.444;2023-07-28T05:03:43;48.72;;;14.85;;
68718;SDS011;55696;52.138;5.444;2023-07-28T05:06:25;37.53;;;15.15;;
68718;SDS011;55696;52.138;5.444;2023-07-28T05:08:52;42.10;;;15.40;;
68718;SDS011;55696;52.138;5.444;2023-07-28T05:11:25;44.55;;;15.40;;
68718;SDS011;55696;52.138;5.444;2023-07-28T05:13:52;43.25;;;16.30;;
68718;SDS011;55696;52.138;5.444;2023-07-28T05:16:19;51.35;;;17.02;;
68718;SDS011;55696;52.138;5.444;2023-07-28T05:19:01;36.42;;;13.80;;
68718;SDS011;55696;52.138;5.444;2023-07-28T05:21:47;45.77;;;15.60;;
68718;SDS011;55696;52.138;5.444;2023-07-28T05:24:17;37.20;;;14.88;;
68718;SDS011;55696;52.138;5.444;2023-07-28T05:26:44;42.22;;;15.57;;
68718;SDS011;55696;52.138;5.444;2023-07-28T05:29:12;35.25;;;13.65;;
68718;SDS011;55696;52.138;5.444;2023-07-28T05:31:39;36.58;;;14.25;;
68718;SDS011;55696;52.138;5.444;2023-07-28T05:34:15;34.07;;;14.13;;
68718;SDS011;55696;52.138;5.444;2023-07-28T05:36:42;32.40;;;13.27;;
68718;SDS011;55696;52.138;5.444;2023-07-28T05:39:10;43.55;;;14.32;;
68718;SDS011;55696;52.138;5.444;2023-07-28T05:41:41;31.13;;;12.07;;
68718;SDS011;55696;52.138;5.444;2023-07-28T05:44:09;36.10;;;13.15;;
68718;SDS011;55696;52.138;5.444;2023-07-28T05:46:36;37.03;;;12.93;;
68718;SDS011;55696;52.138;5.444;2023-07-28T05:49:03;31.35;;;13.35;;
68718;SDS011;55696;52.138;5.444;2023-07-28T05:51:30;31.35;;;13.40;;
68718;SDS011;55696;52.138;5.444;2023-07-28T05:53:58;31.15;;;12.88;;
68718;SDS011;55696;52.138;5.444;2023-07-28T05:56:25;33.05;;;12.65;;
68718;SDS011;55696;52.138;5.444;2023-07-28T05:58:51;28.07;;;12.03;;
68718;SDS011;55696;52.138;5.444;2023-07-28T06:01:18;30.80;;;11.95;;
68718;SDS011;55696;52.138;5.444;2023-07-28T06:04:18;29.90;;;12.45;;
68718;SDS011;55696;52.138;5.444;2023-07-28T06:06:47;24.10;;;10.80;;
68718;SDS011;55696;52.138;5.444;2023-07-28T06:09:16;24.95;;;11.35;;
68718;SDS011;55696;52.138;5.444;2023-07-28T06:11:43;23.07;;;11.00;;
68718;SDS011;55696;52.138;5.444;2023-07-28T06:14:11;27.80;;;12.32;;
68718;SDS011;55696;52.138;5.444;2023-07-28T06:16:38;25.95;;;11.88;;
68718;SDS011;55696;52.138;5.444;2023-07-28T06:19:06;28.08;;;12.15;;
68718;SDS011;55696;52.138;5.444;2023-07-28T06:21:35;26.25;;;12.07;;
68718;SDS011;55696;52.138;5.444;2023-07-28T06:24:02;26.47;;;11.60;;
68718;SDS011;55696;52.138;5.444;2023-07-28T06:26:29;27.33;;;12.05;;
68718;SDS011;55696;52.138;5.444;2023-07-28T06:28:56;23.10;;;10.70;;
68718;SDS011;55696;52.138;5.444;2023-07-28T06:31:23;22.70;;;11.00;;
68718;SDS011;55696;52.138;5.444;2023-07-28T06:33:50;22.13;;;10.75;;
68718;SDS011;55696;52.138;5.444;2023-07-28T06:36:17;23.40;;;11.17;;
68718;SDS011;55696;52.138;5.444;2023-07-28T06:38:44;21.67;;;10.15;;
68718;SDS011;55696;52.138;5.444;2023-07-28T06:41:14;22.23;;;10.43;;
68718;SDS011;55696;52.138;5.444;2023-07-28T06:43:43;21.23;;;10.75;;
68718;SDS011;55696;52.138;5.444;2023-07-28T06:46:10;22.58;;;10.15;;
68718;SDS011;55696;52.138;5.444;2023-07-28T06:48:37;21.37;;;11.13;;
68718;SDS011;55696;52.138;5.444;2023-07-28T06:51:05;25.45;;;10.93;;
68718;SDS011;55696;52.138;5.444;2023-07-28T06:53:32;27.08;;;11.18;;
68718;SDS011;55696;52.138;5.444;2023-07-28T06:56:00;21.38;;;11.02;;
68718;SDS011;55696;52.138;5.444;2023-07-28T06:58:27;28.63;;;11.55;;
68718;SDS011;55696;52.138;5.444;2023-07-28T07:00:54;23.93;;;11.17;;
68718;SDS011;55696;52.138;5.444;2023-07-28T07:03:22;32.85;;;12.25;;
68718;SDS011;55696;52.138;5.444;2023-07-28T07:05:50;23.35;;;12.23;;
68718;SDS011;55696;52.138;5.444;2023-07-28T07:08:17;24.88;;;11.25;;
68718;SDS011;55696;52.138;5.444;2023-07-28T07:10:50;28.70;;;12.65;;
68718;SDS011;55696;52.138;5.444;2023-07-28T07:13:17;24.43;;;12.27;;
68718;SDS011;55696;52.138;5.444;2023-07-28T07:15:45;29.42;;;12.18;;
68718;SDS011;55696;52.138;5.444;2023-07-28T07:18:12;24.80;;;11.85;;
68718;SDS011;55696;52.138;5.444;2023-07-28T07:20:39;24.15;;;11.32;;
68718;SDS011;55696;52.138;5.444;2023-07-28T07:23:06;24.10;;;11.80;;
68718;SDS011;55696;52.138;5.444;2023-07-28T07:25:33;26.13;;;12.67;;
68718;SDS011;55696;52.138;5.444;2023-07-28T07:28:02;27.10;;;12.90;;
68718;SDS011;55696;52.138;5.444;2023-07-28T07:30:31;29.02;;;13.80;;
68718;SDS011;55696;52.138;5.444;2023-07-28T07:32:59;24.45;;;12.88;;
68718;SDS011;55696;52.138;5.444;2023-07-28T07:35:26;29.20;;;13.60;;
68718;SDS011;55696;52.138;5.444;2023-07-28T07:37:53;28.07;;;12.97;;
68718;SDS011;55696;52.138;5.444;2023-07-28T07:40:20;26.90;;;12.88;;
68718;SDS011;55696;52.138;5.444;2023-07-28T07:42:47;25.67;;;12.90;;
68718;SDS011;55696;52.138;5.444;2023-07-28T07:45:15;27.58;;;12.32;;
68718;SDS011;55696;52.138;5.444;2023-07-28T07:47:42;21.85;;;11.63;;
68718;SDS011;55696;52.138;5.444;2023-07-28T07:50:09;26.40;;;11.90;;
68718;SDS011;55696;52.138;5.444;2023-07-28T07:52:37;21.15;;;10.35;;
68718;SDS011;55696;52.138;5.444;2023-07-28T07:55:08;23.17;;;10.65;;
68718;SDS011;55696;52.138;5.444;2023-07-28T07:57:37;21.42;;;10.25;;
68718;SDS011;55696;52.138;5.444;2023-07-28T08:00:05;21.58;;;9.88;;
68718;SDS011;55696;52.138;5.444;2023-07-28T08:02:37;19.77;;;10.20;;
68718;SDS011;55696;52.138;5.444;2023-07-28T08:05:05;18.40;;;9.20;;
68718;SDS011;55696;52.138;5.444;2023-07-28T08:07:32;21.15;;;9.52;;
68718;SDS011;55696;52.138;5.444;2023-07-28T08:09:59;16.75;;;9.18;;
68718;SDS011;55696;52.138;5.444;2023-07-28T08:12:26;16.23;;;8.23;;
68718;SDS011;55696;52.138;5.444;2023-07-28T08:14:53;15.07;;;7.57;;
68718;SDS011;55696;52.138;5.444;2023-07-28T08:17:22;16.83;;;8.02;;
68718;SDS011;55696;52.138;5.444;2023-07-28T08:19:49;14.82;;;8.77;;
68718;SDS011;55696;52.138;5.444;2023-07-28T08:22:16;17.08;;;8.13;;
68718;SDS011;55696;52.138;5.444;2023-07-28T08:24:42;18.05;;;8.63;;
68718;SDS011;55696;52.138;5.444;2023-07-28T08:27:09;17.07;;;7.80;;
68718;SDS011;55696;52.138;5.444;2023-07-28T08:29:36;18.23;;;7.68;;
68718;SDS011;55696;52.138;5.444;2023-07-28T08:32:03;17.80;;;7.22;;
68718;SDS011;55696;52.138;5.444;2023-07-28T08:34:30;16.00;;;6.97;;
68718;SDS011;55696;52.138;5.444;2023-07-28T08:36:57;13.55;;;6.13;;
68718;SDS011;55696;52.138;5.444;2023-07-28T08:39:23;15.80;;;5.60;;
68718;SDS011;55696;52.138;5.444;2023-07-28T08:42:02;14.07;;;5.97;;
68718;SDS011;55696;52.138;5.444;2023-07-28T08:44:33;11.77;;;4.40;;
68718;SDS011;55696;52.138;5.444;2023-07-28T08:47:01;16.23;;;4.78;;
68718;SDS011;55696;52.138;5.444;2023-07-28T08:49:30;12.50;;;4.65;;
68718;SDS011;55696;52.138;5.444;2023-07-28T08:51:59;10.90;;;4.73;;
68718;SDS011;55696;52.138;5.444;2023-07-28T08:54:27;12.82;;;4.43;;
68718;SDS011;55696;52.138;5.444;2023-07-28T08:56:54;9.85;;;4.32;;
68718;SDS011;55696;52.138;5.444;2023-07-28T08:59:24;10.57;;;4.43;;
68718;SDS011;55696;52.138;5.444;2023-07-28T09:01:53;14.35;;;4.45;;
68718;SDS011;55696;52.138;5.444;2023-07-28T09:04:22;13.50;;;4.57;;
68718;SDS011;55696;52.138;5.444;2023-07-28T09:06:50;15.38;;;5.03;;
68718;SDS011;55696;52.138;5.444;2023-07-28T09:09:19;10.70;;;3.97;;
68718;SDS011;55696;52.138;5.444;2023-07-28T09:11:51;8.38;;;3.63;;
68718;SDS011;55696;52.138;5.444;2023-07-28T09:14:20;8.88;;;4.00;;
68718;SDS011;55696;52.138;5.444;2023-07-28T09:16:49;12.37;;;4.37;;
68718;SDS011;55696;52.138;5.444;2023-07-28T09:19:16;8.57;;;3.53;;
68718;SDS011;55696;52.138;5.444;2023-07-28T09:21:43;10.90;;;3.92;;
68718;SDS011;55696;52.138;5.444;2023-07-28T09:24:13;8.05;;;3.90;;
68718;SDS011;55696;52.138;5.444;2023-07-28T09:26:41;11.48;;;3.50;;
68718;SDS011;55696;52.138;5.444;2023-07-28T09:29:14;7.73;;;3.43;;
68718;SDS011;55696;52.138;5.444;2023-07-28T09:31:43;8.32;;;3.35;;
68718;SDS011;55696;52.138;5.444;2023-07-28T09:34:27;7.18;;;2.97;;
68718;SDS011;55696;52.138;5.444;2023-07-28T09:36:54;8.55;;;3.50;;
68718;SDS011;55696;52.138;5.444;2023-07-28T09:39:26;9.73;;;3.55;;
68718;SDS011;55696;52.138;5.444;2023-07-28T09:41:54;6.87;;;2.60;;
68718;SDS011;55696;52.138;5.444;2023-07-28T09:44:24;10.75;;;3.38;;
68718;SDS011;55696;52.138;5.444;2023-07-28T09:46:52;8.77;;;3.42;;
68718;SDS011;55696;52.138;5.444;2023-07-28T09:49:22;8.98;;;3.65;;
68718;SDS011;55696;52.138;5.444;2023-07-28T09:51:55;7.65;;;3.10;;
68718;SDS011;55696;52.138;5.444;2023-07-28T09:54:27;9.60;;;3.30;;
68718;SDS011;55696;52.138;5.444;2023-07-28T09:56:56;8.13;;;3.60;;
68718;SDS011;55696;52.138;5.444;2023-07-28T09:59:32;9.18;;;3.63;;
68718;SDS011;55696;52.138;5.444;2023-07-28T10:02:01;8.05;;;2.92;;
68718;SDS011;55696;52.138;5.444;2023-07-28T10:04:29;9.07;;;3.05;;
68718;SDS011;55696;52.138;5.444;2023-07-28T10:06:56;10.03;;;3.50;;
68718;SDS011;55696;52.138;5.444;2023-07-28T10:09:24;9.50;;;3.50;;
68718;SDS011;55696;52.138;5.444;2023-07-28T10:11:53;11.10;;;4.07;;
68718;SDS011;55696;52.138;5.444;2023-07-28T10:14:25;9.52;;;3.45;;
68718;SDS011;55696;52.138;5.444;2023-07-28T10:16:54;8.77;;;3.28;;
68718;SDS011;55696;52.138;5.444;2023-07-28T10:19:21;10.13;;;3.97;;
68718;SDS011;55696;52.138;5.444;2023-07-28T10:21:47;10.32;;;3.70;;
68718;SDS011;55696;52.138;5.444;2023-07-28T10:24:14;10.82;;;4.38;;
68718;SDS011;55696;52.138;5.444;2023-07-28T10:26:41;8.13;;;3.40;;
68718;SDS011;55696;52.138;5.444;2023-07-28T10:29:09;7.80;;;3.63;;
68718;SDS011;55696;52.138;5.444;2023-07-28T10:31:37;7.50;;;3.30;;
68718;SDS011;55696;52.138;5.444;2023-07-28T10:34:18;12.35;;;6.80;;
68718;SDS011;55696;52.138;5.444;2023-07-28T10:36:45;14.90;;;7.93;;
68718;SDS011;55696;52.138;5.444;2023-07-28T10:39:13;13.05;;;5.85;;
68718;SDS011;55696;52.138;5.444;2023-07-28T10:44:30;10.40;;;5.97;;
68718;SDS011;55696;52.138;5.444;2023-07-28T10:46:57;16.30;;;9.25;;
68718;SDS011;55696;52.138;5.444;2023-07-28T10:49:24;12.75;;;7.55;;
68718;SDS011;55696;52.138;5.444;2023-07-28T10:51:52;12.57;;;6.90;;
68718;SDS011;55696;52.138;5.444;2023-07-28T10:54:19;10.20;;;6.60;;
68718;SDS011;55696;52.138;5.444;2023-07-28T10:56:49;8.00;;;5.37;;
68718;SDS011;55696;52.138;5.444;2023-07-28T10:59:15;8.82;;;4.90;;
68718;SDS011;55696;52.138;5.444;2023-07-28T11:01:43;13.90;;;6.38;;
68718;SDS011;55696;52.138;5.444;2023-07-28T11:04:11;9.23;;;4.78;;
68718;SDS011;55696;52.138;5.444;2023-07-28T11:06:45;14.02;;;8.35;;
68718;SDS011;55696;52.138;5.444;2023-07-28T11:09:14;14.60;;;8.43;;
68718;SDS011;55696;52.138;5.444;2023-07-28T11:11:45;8.65;;;5.18;;
68718;SDS011;55696;52.138;5.444;2023-07-28T11:14:14;15.75;;;8.75;;
68718;SDS011;55696;52.138;5.444;2023-07-28T11:16:43;11.00;;;5.80;;
68718;SDS011;55696;52.138;5.444;2023-07-28T11:19:15;10.75;;;5.00;;
68718;SDS011;55696;52.138;5.444;2023-07-28T11:21:44;9.30;;;5.23;;
68718;SDS011;55696;52.138;5.444;2023-07-28T11:24:11;12.38;;;7.30;;
68718;SDS011;55696;52.138;5.444;2023-07-28T11:26:38;13.90;;;8.25;;
68718;SDS011;55696;52.138;5.444;2023-07-28T11:29:06;9.30;;;5.90;;
68718;SDS011;55696;52.138;5.444;2023-07-28T11:31:33;13.43;;;5.20;;
68718;SDS011;55696;52.138;5.444;2023-07-28T11:34:00;9.37;;;5.17;;
68718;SDS011;55696;52.138;5.444;2023-07-28T11:36:28;14.30;;;5.43;;
68718;SDS011;55696;52.138;5.444;2023-07-28T11:38:57;11.95;;;5.10;;
68718;SDS011;55696;52.138;5.444;2023-07-28T11:41:26;13.25;;;7.10;;
68718;SDS011;55696;52.138;5.444;2023-07-28T11:43:54;14.18;;;7.20;;
68718;SDS011;55696;52.138;5.444;2023-07-28T11:46:40;10.47;;;5.87;;
68718;SDS011;55696;52.138;5.444;2023-07-28T11:49:09;12.32;;;6.18;;
68718;SDS011;55696;52.138;5.444;2023-07-28T11:51:46;13.15;;;7.13;;
68718;SDS011;55696;52.138;5.444;2023-07-28T11:54:15;14.18;;;7.00;;
68718;SDS011;55696;52.138;5.444;2023-07-28T11:56:44;12.20;;;7.03;;
68718;SDS011;55696;52.138;5.444;2023-07-28T11:59:14;12.30;;;6.63;;
68718;SDS011;55696;52.138;5.444;2023-07-28T12:01:55;12.15;;;6.78;;
68718;SDS011;55696;52.138;5.444;2023-07-28T12:04:26;9.32;;;6.28;;
68718;SDS011;55696;52.138;5.444;2023-07-28T12:07:01;12.63;;;5.90;;
68718;SDS011;55696;52.138;5.444;2023-07-28T12:09:30;11.80;;;7.07;;
68718;SDS011;55696;52.138;5.444;2023-07-28T12:11:57;11.37;;;6.43;;
68718;SDS011;55696;52.138;5.444;2023-07-28T12:14:34;11.68;;;6.22;;
68718;SDS011;55696;52.138;5.444;2023-07-28T12:17:14;11.52;;;5.28;;
68718;SDS011;55696;52.138;5.444;2023-07-28T12:19:59;8.55;;;4.70;;
68718;SDS011;55696;52.138;5.444;2023-07-28T12:22:43;10.38;;;4.63;;
68718;SDS011;55696;52.138;5.444;2023-07-28T12:25:11;16.47;;;5.90;;
68718;SDS011;55696;52.138;5.444;2023-07-28T12:27:38;10.00;;;5.57;;
68718;SDS011;55696;52.138;5.444;2023-07-28T12:30:05;10.80;;;6.25;;
68718;SDS011;55696;52.138;5.444;2023-07-28T12:32:43;13.85;;;5.93;;
68718;SDS011;55696;52.138;5.444;2023-07-28T12:35:28;10.68;;;4.78;;
68718;SDS011;55696;52.138;5.444;2023-07-28T12:38:04;8.03;;;4.00;;
68718;SDS011;55696;52.138;5.444;2023-07-28T12:40:34;5.70;;;3.50;;
68718;SDS011;55696;52.138;5.444;2023-07-28T12:43:04;8.63;;;3.75;;
68718;SDS011;55696;52.138;5.444;2023-07-28T12:45:32;12.43;;;4.28;;
68718;SDS011;55696;52.138;5.444;2023-07-28T12:48:02;10.57;;;3.67;;
68718;SDS011;55696;52.138;5.444;2023-07-28T12:50:30;7.10;;;3.87;;
68718;SDS011;55696;52.138;5.444;2023-07-28T12:53:07;6.32;;;4.07;;
68718;SDS011;55696;52.138;5.444;2023-07-28T12:55:43;7.60;;;4.30;;
68718;SDS011;55696;52.138;5.444;2023-07-28T12:58:13;8.13;;;3.72;;
68718;SDS011;55696;52.138;5.444;2023-07-28T13:00:43;7.57;;;3.72;;
68718;SDS011;55696;52.138;5.444;2023-07-28T13:03:13;5.20;;;3.03;;
68718;SDS011;55696;52.138;5.444;2023-07-28T13:05:40;6.35;;;3.40;;
68718;SDS011;55696;52.138;5.444;2023-07-28T13:08:10;6.32;;;3.05;;
68718;SDS011;55696;52.138;5.444;2023-07-28T13:10:37;5.25;;;2.90;;
68718;SDS011;55696;52.138;5.444;2023-07-28T13:13:07;6.07;;;3.30;;
68718;SDS011;55696;52.138;5.444;2023-07-28T13:15:39;5.60;;;3.17;;
68718;SDS011;55696;52.138;5.444;2023-07-28T13:18:06;6.70;;;3.22;;
68718;SDS011;55696;52.138;5.444;2023-07-28T13:20:33;7.35;;;3.47;;
68718;SDS011;55696;52.138;5.444;2023-07-28T13:23:00;5.35;;;3.30;;
68718;SDS011;55696;52.138;5.444;2023-07-28T13:25:27;7.22;;;3.38;;
68718;SDS011;55696;52.138;5.444;2023-07-28T13:27:54;9.33;;;4.07;;
68718;SDS011;55696;52.138;5.444;2023-07-28T13:30:21;7.35;;;3.75;;
68718;SDS011;55696;52.138;5.444;2023-07-28T13:32:48;9.05;;;4.13;;
68718;SDS011;55696;52.138;5.444;2023-07-28T13:35:15;9.38;;;4.47;;
68718;SDS011;55696;52.138;5.444;2023-07-28T13:37:43;6.63;;;3.90;;
68718;SDS011;55696;52.138;5.444;2023-07-28T13:40:10;7.50;;;4.50;;
68718;SDS011;55696;52.138;5.444;2023-07-28T13:42:39;8.23;;;3.78;;
68718;SDS011;55696;52.138;5.444;2023-07-28T13:45:06;6.00;;;3.80;;
68718;SDS011;55696;52.138;5.444;2023-07-28T13:47:34;7.07;;;3.63;;
68718;SDS011;55696;52.138;5.444;2023-07-28T13:50:01;7.15;;;3.40;;
68718;SDS011;55696;52.138;5.444;2023-07-28T13:52:28;6.33;;;3.87;;
68718;SDS011;55696;52.138;5.444;2023-07-28T13:54:56;8.68;;;4.15;;
68718;SDS011;55696;52.138;5.444;2023-07-28T13:57:25;8.40;;;4.40;;
68718;SDS011;55696;52.138;5.444;2023-07-28T13:59:52;7.00;;;4.18;;
68718;SDS011;55696;52.138;5.444;2023-07-28T14:02:19;5.53;;;3.92;;
68718;SDS011;55696;52.138;5.444;2023-07-28T14:04:46;6.87;;;3.43;;
68718;SDS011;55696;52.138;5.444;2023-07-28T14:07:13;5.15;;;3.63;;
68718;SDS011;55696;52.138;5.444;2023-07-28T14:09:40;6.50;;;3.60;;
68718;SDS011;55696;52.138;5.444;2023-07-28T14:12:07;8.32;;;3.28;;
68718;SDS011;55696;52.138;5.444;2023-07-28T14:14:34;6.45;;;3.78;;
68718;SDS011;55696;52.138;5.444;2023-07-28T14:17:00;5.63;;;3.47;;
68718;SDS011;55696;52.138;5.444;2023-07-28T14:19:28;4.50;;;3.30;;
68718;SDS011;55696;52.138;5.444;2023-07-28T14:21:54;5.95;;;3.45;;
68718;SDS011;55696;52.138;5.444;2023-07-28T14:24:21;6.63;;;3.28;;
68718;SDS011;55696;52.138;5.444;2023-07-28T14:26:48;8.30;;;3.80;;
68718;SDS011;55696;52.138;5.444;2023-07-28T14:29:15;5.80;;;3.60;;
68718;SDS011;55696;52.138;5.444;2023-07-28T14:31:42;6.05;;;3.35;;
68718;SDS011;55696;52.138;5.444;2023-07-28T14:34:08;7.63;;;3.53;;
68718;SDS011;55696;52.138;5.444;2023-07-28T14:36:35;6.28;;;3.50;;
68718;SDS011;55696;52.138;5.444;2023-07-28T14:39:02;7.07;;;3.70;;
68718;SDS011;55696;52.138;5.444;2023-07-28T14:41:29;4.83;;;3.27;;
68718;SDS011;55696;52.138;5.444;2023-07-28T14:43:57;6.57;;;3.50;;
68718;SDS011;55696;52.138;5.444;2023-07-28T14:46:24;6.43;;;4.00;;
68718;SDS011;55696;52.138;5.444;2023-07-28T14:48:52;6.78;;;3.20;;
68718;SDS011;55696;52.138;5.444;2023-07-28T14:51:20;7.97;;;3.55;;